createdAt,value
2018-04-06T00:01:08.133Z,99.90
2018-04-06T00:03:34.304Z,99.90
2018-04-06T00:06:00.377Z,99.90
2018-04-06T00:08:26.430Z,99.90
2018-04-06T00:10:52.472Z,99.90
2018-04-06T00:13:18.523Z,99.90
2018-04-06T00:15:44.812Z,99.90
2018-04-06T00:18:11.348Z,99.90
2018-04-06T00:20:38.502Z,99.90
2018-04-06T00:23:05.407Z,99.90
2018-04-06T00:25:31.575Z,99.90
2018-04-06T00:27:57.672Z,99.90
2018-04-06T00:30:24.419Z,99.90
2018-04-06T00:32:51.254Z,99.90
2018-04-06T00:35:17.691Z,99.90
2018-04-06T00:37:44.070Z,99.90
2018-04-06T00:40:10.577Z,99.90
2018-04-06T00:42:36.662Z,99.90
2018-04-06T00:45:02.918Z,99.90
2018-04-06T00:47:29.080Z,99.90
2018-04-06T00:49:56.177Z,99.90
2018-04-06T00:52:22.223Z,99.90
2018-04-06T00:54:49.041Z,99.90
2018-04-06T00:57:15.499Z,99.90
2018-04-06T00:59:41.728Z,99.90
2018-04-06T01:02:08.060Z,99.90
2018-04-06T01:04:34.569Z,99.90
2018-04-06T01:07:00.656Z,99.90
2018-04-06T01:09:26.713Z,99.90
2018-04-06T01:11:53.022Z,99.90
2018-04-06T01:14:19.070Z,99.90
2018-04-06T01:16:45.229Z,99.90
2018-04-06T01:19:11.323Z,99.90
2018-04-06T01:21:37.475Z,99.90
2018-04-06T01:24:03.575Z,99.90
2018-04-06T01:26:30.378Z,99.90
2018-04-06T01:28:56.438Z,99.90
2018-04-06T01:31:22.461Z,99.90
2018-04-06T01:33:48.696Z,99.90
2018-04-06T01:36:14.902Z,99.90
2018-04-06T01:38:41.261Z,99.90
2018-04-06T01:41:07.889Z,99.90
2018-04-06T01:43:34.239Z,99.90
2018-04-06T01:46:00.498Z,99.90
2018-04-06T01:48:27.275Z,99.90
2018-04-06T01:50:54.072Z,99.90
2018-04-06T01:53:20.855Z,99.90
2018-04-06T01:55:47.170Z,99.90
2018-04-06T01:58:13.335Z,99.90
2018-04-06T02:00:39.470Z,99.90
2018-04-06T02:03:05.768Z,99.90
2018-04-06T02:05:32.587Z,99.90
2018-04-06T02:07:58.660Z,99.90
2018-04-06T02:10:24.984Z,99.90
2018-04-06T02:12:51.102Z,99.90
2018-04-06T02:15:17.265Z,99.90
2018-04-06T02:17:43.397Z,99.90
2018-04-06T02:20:09.802Z,99.90
2018-04-06T02:22:35.930Z,99.90
2018-04-06T02:25:02.990Z,99.90
2018-04-06T02:27:29.821Z,99.90
2018-04-06T02:29:55.859Z,99.90
2018-04-06T02:32:21.994Z,99.90
2018-04-06T02:34:48.249Z,99.90
2018-04-06T02:37:14.615Z,99.90
2018-04-06T02:39:41.078Z,99.90
2018-04-06T02:42:07.244Z,99.90
2018-04-06T02:44:33.436Z,99.90
2018-04-06T02:46:59.763Z,99.90
2018-04-06T02:49:25.757Z,99.90
2018-04-06T02:51:51.799Z,99.90
2018-04-06T02:54:17.945Z,99.90
2018-04-06T02:59:18.028Z,99.90
2018-04-06T03:01:45.034Z,99.90
2018-04-06T03:04:11.180Z,99.90
2018-04-06T03:06:37.332Z,99.90
2018-04-06T03:09:03.407Z,99.90
2018-04-06T03:11:29.478Z,99.90
2018-04-06T03:13:55.567Z,99.90
2018-04-06T03:16:21.588Z,99.90
2018-04-06T03:18:47.730Z,99.90
2018-04-06T03:21:13.827Z,99.90
2018-04-06T03:23:40.738Z,99.90
2018-04-06T03:26:06.802Z,99.90
2018-04-06T03:28:32.818Z,99.90
2018-04-06T03:30:58.868Z,99.90
2018-04-06T03:33:24.878Z,99.90
2018-04-06T03:35:51.064Z,99.90
2018-04-06T03:38:17.115Z,99.90
2018-04-06T03:40:43.167Z,99.90
2018-04-06T03:43:09.274Z,99.90
2018-04-06T03:45:36.071Z,99.90
2018-04-06T03:48:02.120Z,99.90
2018-04-06T03:50:28.288Z,99.90
2018-04-06T03:52:54.295Z,99.90
2018-04-06T03:55:20.316Z,99.90
2018-04-06T03:57:47.266Z,99.90
2018-04-06T04:00:13.317Z,99.90
2018-04-06T04:02:39.416Z,99.90
2018-04-06T04:05:06.204Z,99.90
2018-04-06T04:07:32.370Z,99.90
2018-04-06T04:09:58.454Z,99.90
2018-04-06T04:12:24.512Z,99.90
2018-04-06T04:14:50.534Z,99.90
2018-04-06T04:17:17.290Z,99.90
2018-04-06T04:19:43.438Z,99.90
2018-04-06T04:22:09.571Z,99.90
2018-04-06T04:24:35.607Z,99.90
2018-04-06T04:27:01.921Z,99.90
2018-04-06T04:29:28.006Z,99.90
2018-04-06T04:31:54.034Z,99.90
2018-04-06T04:34:20.071Z,99.90
2018-04-06T04:36:46.076Z,99.90
2018-04-06T04:39:12.874Z,99.90
2018-04-06T04:41:39.099Z,99.90
2018-04-06T04:44:05.172Z,99.90
2018-04-06T04:46:31.195Z,99.90
2018-04-06T04:48:57.251Z,99.90
2018-04-06T04:51:23.252Z,99.90
2018-04-06T04:53:49.271Z,99.90
2018-04-06T04:56:15.343Z,99.90
2018-04-06T04:58:41.555Z,99.90
2018-04-06T05:01:07.653Z,99.90
2018-04-06T05:03:34.491Z,99.90
2018-04-06T05:06:00.573Z,99.90
2018-04-06T05:08:27.457Z,99.90
2018-04-06T05:10:53.499Z,99.90
2018-04-06T05:13:19.581Z,99.90
2018-04-06T05:15:45.720Z,99.90
2018-04-06T05:18:11.763Z,99.90
2018-04-06T05:20:37.871Z,99.90
2018-04-06T05:23:04.726Z,99.90
2018-04-06T05:25:30.778Z,99.90
2018-04-06T05:27:56.877Z,99.90
2018-04-06T05:30:22.950Z,99.90
2018-04-06T05:32:49.011Z,99.90
2018-04-06T05:35:15.905Z,99.90
2018-04-06T05:37:42.123Z,99.90
2018-04-06T05:40:08.975Z,99.90
2018-04-06T05:42:35.093Z,99.90
2018-04-06T05:45:01.269Z,99.90
2018-04-06T05:47:27.359Z,99.90
2018-04-06T05:49:53.442Z,99.90
2018-04-06T05:52:19.554Z,99.90
2018-04-06T05:54:45.718Z,99.90
2018-04-06T05:57:12.583Z,99.90
2018-04-06T05:59:38.667Z,99.90
2018-04-06T06:02:04.743Z,99.90
2018-04-06T06:04:31.545Z,99.90
2018-04-06T06:06:57.647Z,99.90
2018-04-06T06:09:23.705Z,99.90
2018-04-06T06:11:49.760Z,99.90
2018-04-06T06:14:15.833Z,99.90
2018-04-06T06:16:42.914Z,99.90
2018-04-06T06:19:09.261Z,99.90
2018-04-06T06:21:36.775Z,99.90
2018-04-06T06:24:02.971Z,99.90
2018-04-06T06:26:29.073Z,99.90
2018-04-06T06:28:55.156Z,99.90
2018-04-06T06:31:21.219Z,99.90
2018-04-06T06:33:47.309Z,99.90
2018-04-06T06:36:14.166Z,99.90
2018-04-06T06:38:40.387Z,99.90
2018-04-06T06:41:07.195Z,99.90
2018-04-06T06:43:34.603Z,99.90
2018-04-06T06:46:00.741Z,99.90
2018-04-06T06:48:26.867Z,99.90
2018-04-06T06:50:53.703Z,99.90
2018-04-06T06:53:19.738Z,99.90
2018-04-06T06:55:45.774Z,99.90
2018-04-06T06:58:11.915Z,99.90
2018-04-06T07:00:38.206Z,99.90
2018-04-06T07:03:04.355Z,99.90
2018-04-06T07:05:31.400Z,99.90
2018-04-06T07:07:57.533Z,99.90
2018-04-06T07:10:23.730Z,99.90
2018-04-06T07:12:49.783Z,99.90
2018-04-06T07:15:15.875Z,99.90
2018-04-06T07:17:42.003Z,99.90
2018-04-06T07:20:08.915Z,99.90
2018-04-06T07:22:34.970Z,99.90
2018-04-06T07:25:01.124Z,99.90
2018-04-06T07:27:27.205Z,99.90
2018-04-06T07:29:53.232Z,99.90
2018-04-06T07:32:19.353Z,99.90
2018-04-06T07:34:46.147Z,99.90
2018-04-06T07:37:12.222Z,99.90
2018-04-06T07:39:38.507Z,99.90
2018-04-06T07:42:04.591Z,99.90
2018-04-06T07:44:30.641Z,99.90
2018-04-06T07:46:56.686Z,99.90
2018-04-06T07:49:22.723Z,99.90
2018-04-06T07:51:48.762Z,99.90
2018-04-06T07:54:14.907Z,99.90
2018-04-06T07:56:41.092Z,99.90
2018-04-06T07:59:07.230Z,99.90
2018-04-06T08:01:33.331Z,99.90
2018-04-06T08:04:00.153Z,99.90
2018-04-06T08:06:26.221Z,99.90
2018-04-06T08:08:52.569Z,99.90
2018-04-06T08:11:19.371Z,99.90
2018-04-06T08:13:45.403Z,99.90
2018-04-06T08:16:11.668Z,99.90
2018-04-06T08:18:37.890Z,99.90
2018-04-06T08:21:03.933Z,99.90
2018-04-06T08:23:30.247Z,99.90
2018-04-06T08:25:56.382Z,99.90
2018-04-06T08:28:22.394Z,99.90
2018-04-06T08:30:48.735Z,99.90
2018-04-06T08:33:14.856Z,99.90
2018-04-06T08:35:40.966Z,99.90
2018-04-06T08:38:07.068Z,99.90
2018-04-06T08:40:33.127Z,99.90
2018-04-06T08:42:59.163Z,99.90
2018-04-06T08:45:25.315Z,99.90
2018-04-06T08:47:51.391Z,99.90
2018-04-06T08:50:17.675Z,99.90
2018-04-06T08:52:43.939Z,99.90
2018-04-06T08:55:10.166Z,99.90
2018-04-06T08:57:36.216Z,99.90
2018-04-06T09:00:03.231Z,99.90
2018-04-06T09:02:30.798Z,99.90
2018-04-06T09:04:56.820Z,99.90
2018-04-06T09:07:23.099Z,99.90
2018-04-06T09:09:49.138Z,99.90
2018-04-06T09:12:15.216Z,99.90
2018-04-06T09:14:41.305Z,99.90
2018-04-06T09:17:08.128Z,99.90
2018-04-06T09:19:34.222Z,99.90
2018-04-06T09:22:00.799Z,99.90
2018-04-06T09:24:26.860Z,99.90
2018-04-06T09:26:52.904Z,99.90
2018-04-06T09:29:18.956Z,99.90
2018-04-06T09:31:44.990Z,99.90
2018-04-06T09:34:11.102Z,99.90
2018-04-06T09:36:38.198Z,99.90
2018-04-06T09:39:05.093Z,99.90
2018-04-06T09:41:31.149Z,99.90
2018-04-06T09:43:57.289Z,99.90
2018-04-06T09:46:24.069Z,99.90
2018-04-06T09:48:50.930Z,99.90
2018-04-06T09:51:17.282Z,99.90
2018-04-06T09:53:44.048Z,99.90
2018-04-06T09:56:10.115Z,99.90
2018-04-06T09:58:36.174Z,99.90
2018-04-06T10:01:02.210Z,99.90
2018-04-06T10:03:28.252Z,99.90
2018-04-06T10:05:54.306Z,99.90
2018-04-06T10:08:20.330Z,99.90
2018-04-06T10:10:46.432Z,99.90
2018-04-06T10:13:13.266Z,99.90
2018-04-06T10:15:39.434Z,99.90
2018-04-06T10:18:05.476Z,99.90
2018-04-06T10:20:31.683Z,99.90
2018-04-06T10:22:57.779Z,99.90
2018-04-06T10:25:23.859Z,99.90
2018-04-06T10:27:50.186Z,99.90
2018-04-06T10:30:16.982Z,99.90
2018-04-06T10:32:43.046Z,99.90
2018-04-06T10:35:09.120Z,99.90
2018-04-06T10:37:35.865Z,99.90
2018-04-06T10:40:03.679Z,99.90
2018-04-06T10:42:29.708Z,99.90
2018-04-06T10:44:55.778Z,99.90
2018-04-06T10:47:22.032Z,99.90
2018-04-06T10:49:48.047Z,99.90
2018-04-06T10:52:14.118Z,99.90
2018-04-06T10:54:40.366Z,99.90
2018-04-06T10:57:06.402Z,99.90
2018-04-06T10:59:32.575Z,99.90
2018-04-06T11:01:58.600Z,99.90
2018-04-06T11:04:25.464Z,99.90
2018-04-06T11:06:52.262Z,99.90
2018-04-06T11:09:18.273Z,99.90
2018-04-06T11:11:44.330Z,99.90
2018-04-06T11:14:10.399Z,99.90
2018-04-06T11:16:37.189Z,99.90
2018-04-06T11:19:03.250Z,99.90
2018-04-06T11:21:29.277Z,99.90
2018-04-06T11:23:55.358Z,99.90
2018-04-06T11:26:21.414Z,99.90
2018-04-06T11:28:48.642Z,97.50
2018-04-06T11:31:14.671Z,97.60
2018-04-06T11:33:40.746Z,99.20
2018-04-06T11:36:07.585Z,91.70
2018-04-06T11:38:33.652Z,91.60
2018-04-06T11:40:59.720Z,90.10
2018-04-06T11:43:26.007Z,84.10
2018-04-06T11:45:52.054Z,77.30
2018-04-06T11:48:18.107Z,77.90
2018-04-06T11:50:44.230Z,74.00
2018-04-06T11:53:10.375Z,69.70
2018-04-06T11:55:37.383Z,65.90
2018-04-06T11:58:03.544Z,66.10
2018-04-06T12:00:29.610Z,61.40
2018-04-06T12:02:56.411Z,55.00
2018-04-06T12:05:22.474Z,54.90
2018-04-06T12:07:49.436Z,54.50
2018-04-06T12:10:15.646Z,53.30
2018-04-06T12:12:41.737Z,52.40
2018-04-06T12:15:07.878Z,51.80
2018-04-06T12:17:34.662Z,54.80
2018-04-06T12:20:00.864Z,54.70
2018-04-06T12:22:26.902Z,54.60
2018-04-06T12:24:52.944Z,52.90
2018-04-06T12:27:20.262Z,48.80
2018-04-06T12:29:46.297Z,48.70
2018-04-06T12:32:12.412Z,44.40
2018-04-06T12:34:38.444Z,42.70
2018-04-06T12:37:05.229Z,41.30
2018-04-06T12:39:31.292Z,41.10
2018-04-06T12:41:57.346Z,39.00
2018-04-06T12:44:23.386Z,36.80
2018-04-06T12:46:49.550Z,34.70
2018-04-06T12:49:15.602Z,32.80
2018-04-06T12:51:41.655Z,33.70
2018-04-06T12:54:07.719Z,34.20
2018-04-06T12:56:34.273Z,30.40
2018-04-06T12:59:00.379Z,30.30
2018-04-06T13:01:26.559Z,28.60
2018-04-06T13:03:52.580Z,28.00
2018-04-06T13:06:18.597Z,27.00
2018-04-06T13:08:44.650Z,27.90
2018-04-06T13:11:10.711Z,27.00
2018-04-06T13:13:36.776Z,26.70
2018-04-06T13:16:03.665Z,27.50
2018-04-06T13:18:29.745Z,27.50
2018-04-06T13:20:55.768Z,27.10
2018-04-06T13:23:21.804Z,27.00
2018-04-06T13:25:47.879Z,26.30
2018-04-06T13:28:14.672Z,24.90
2018-04-06T13:30:40.788Z,24.80
2018-04-06T13:33:06.930Z,24.30
2018-04-06T13:35:32.969Z,25.70
2018-04-06T13:37:58.987Z,26.50
2018-04-06T13:40:25.051Z,25.50
2018-04-06T13:42:51.153Z,25.20
2018-04-06T13:45:17.936Z,25.30
2018-04-06T13:47:43.983Z,25.20
2018-04-06T13:50:10.138Z,24.20
2018-04-06T13:52:36.435Z,24.20
2018-04-06T13:55:03.233Z,23.00
2018-04-06T13:57:29.281Z,23.00
2018-04-06T13:59:56.332Z,22.10
2018-04-06T14:02:22.370Z,22.60
2018-04-06T14:04:49.133Z,23.20
2018-04-06T14:07:15.248Z,22.70
2018-04-06T14:09:41.378Z,22.70
2018-04-06T14:12:07.407Z,22.50
2018-04-06T14:14:33.491Z,21.60
2018-04-06T14:17:00.583Z,22.20
2018-04-06T14:19:29.378Z,22.20
2018-04-06T14:21:55.695Z,22.10
2018-04-06T14:24:21.937Z,22.40
2018-04-06T14:26:48.010Z,22.30
2018-04-06T14:29:14.078Z,22.70
2018-04-06T14:31:40.198Z,22.10
2018-04-06T14:34:06.523Z,21.40
2018-04-06T14:36:33.366Z,23.20
2018-04-06T14:38:59.454Z,23.10
2018-04-06T14:41:25.590Z,22.80
2018-04-06T14:43:51.605Z,22.40
2018-04-06T14:46:18.016Z,22.30
2018-04-06T14:48:44.304Z,21.30
2018-04-06T14:51:10.443Z,22.00
2018-04-06T14:53:36.487Z,21.10
2018-04-06T14:56:02.571Z,21.50
2018-04-06T14:58:28.626Z,21.30
2018-04-06T15:00:54.728Z,21.00
2018-04-06T15:03:20.771Z,21.40
2018-04-06T15:05:47.066Z,22.50
2018-04-06T15:08:13.908Z,21.50
2018-04-06T15:10:40.738Z,21.70
2018-04-06T15:13:07.647Z,23.00
2018-04-06T15:15:34.210Z,23.50
2018-04-06T15:18:00.258Z,22.10
2018-04-06T15:20:26.333Z,22.00
2018-04-06T15:22:52.395Z,22.10
2018-04-06T15:25:19.215Z,23.10
2018-04-06T15:27:45.323Z,23.10
2018-04-06T15:30:11.381Z,22.80
2018-04-06T15:32:37.453Z,23.20
2018-04-06T15:35:04.258Z,23.10
2018-04-06T15:37:30.297Z,23.10
2018-04-06T15:39:56.382Z,22.80
2018-04-06T15:42:23.147Z,23.60
2018-04-06T15:44:49.915Z,23.50
2018-04-06T15:47:15.987Z,23.40
2018-04-06T15:49:42.026Z,24.80
2018-04-06T15:52:08.078Z,24.90
2018-04-06T15:54:34.103Z,25.90
2018-04-06T15:57:00.150Z,25.60
2018-04-06T15:59:26.235Z,25.30
2018-04-06T16:01:52.311Z,25.50
2018-04-06T16:04:18.388Z,26.00
2018-04-06T16:06:45.204Z,26.50
2018-04-06T16:09:11.338Z,26.50
2018-04-06T16:11:37.430Z,25.90
2018-04-06T16:14:04.267Z,26.90
2018-04-06T16:16:30.324Z,26.80
2018-04-06T16:18:56.550Z,27.70
2018-04-06T16:21:23.606Z,28.70
2018-04-06T16:23:49.661Z,28.60
2018-04-06T16:26:15.761Z,29.20
2018-04-06T16:28:41.823Z,29.00
2018-04-06T16:31:08.902Z,29.90
2018-04-06T16:33:34.984Z,29.90
2018-04-06T16:36:01.032Z,30.20
2018-04-06T16:38:27.915Z,30.50
2018-04-06T16:40:54.709Z,31.70
2018-04-06T16:43:20.735Z,31.70
2018-04-06T16:45:47.258Z,32.10
2018-04-06T16:48:14.082Z,32.20
2018-04-06T16:50:40.976Z,32.30
2018-04-06T16:53:07.082Z,32.30
2018-04-06T16:55:33.136Z,33.20
2018-04-06T16:57:59.160Z,32.40
2018-04-06T17:00:25.525Z,33.10
2018-04-06T17:02:52.358Z,34.10
2018-04-06T17:05:18.383Z,34.10
2018-04-06T17:07:44.595Z,34.20
2018-04-06T17:10:10.731Z,34.30
2018-04-06T17:12:36.793Z,33.60
2018-04-06T17:15:02.856Z,33.90
2018-04-06T17:17:28.906Z,34.00
2018-04-06T17:19:55.690Z,34.80
2018-04-06T17:22:21.733Z,34.80
2018-04-06T17:24:47.740Z,35.10
2018-04-06T17:27:13.796Z,35.70
2018-04-06T17:29:40.040Z,36.00
2018-04-06T17:32:06.073Z,35.80
2018-04-06T17:34:32.093Z,36.10
2018-04-06T17:36:58.940Z,36.00
2018-04-06T17:39:24.935Z,35.90
2018-04-06T17:41:51.055Z,36.30
2018-04-06T17:44:17.114Z,36.90
2018-04-06T17:46:43.160Z,37.40
2018-04-06T17:49:09.299Z,38.20
2018-04-06T17:51:35.268Z,38.70
2018-04-06T17:54:02.099Z,40.30
2018-04-06T17:56:28.116Z,40.20
2018-04-06T17:58:54.136Z,41.00
2018-04-06T18:01:20.188Z,41.70
2018-04-06T18:03:46.231Z,42.00
2018-04-06T18:06:12.310Z,42.30
2018-04-06T18:08:38.424Z,42.80
2018-04-06T18:11:04.452Z,43.40
2018-04-06T18:13:30.527Z,44.10
2018-04-06T18:15:57.307Z,46.00
2018-04-06T18:18:23.327Z,46.00
2018-04-06T18:20:50.087Z,48.30
2018-04-06T18:23:16.203Z,48.30
2018-04-06T18:25:43.041Z,51.70
2018-04-06T18:28:09.143Z,51.70
2018-04-06T18:30:35.192Z,54.10
2018-04-06T18:33:01.234Z,55.80
2018-04-06T18:35:27.541Z,59.60
2018-04-06T18:37:53.618Z,64.50
2018-04-06T18:40:19.722Z,70.10
2018-04-06T18:42:45.831Z,80.50
2018-04-06T18:45:11.902Z,89.90
2018-04-06T18:47:37.995Z,93.80
2018-04-06T18:50:04.061Z,97.00
2018-04-06T18:52:30.264Z,99.80
2018-04-06T18:54:56.229Z,99.90
2018-04-06T18:57:22.271Z,99.90
2018-04-06T18:59:48.370Z,99.90
2018-04-06T19:02:14.426Z,99.90
2018-04-06T19:04:40.569Z,99.90
2018-04-06T19:07:06.546Z,99.90
2018-04-06T19:09:32.596Z,99.90
2018-04-06T19:11:58.695Z,99.90
2018-04-06T19:14:25.447Z,99.90
2018-04-06T19:16:51.485Z,99.90
2018-04-06T19:19:18.347Z,99.90
2018-04-06T19:21:44.834Z,99.90
2018-04-06T19:24:10.960Z,99.90
2018-04-06T19:26:37.027Z,99.90
2018-04-06T19:29:03.107Z,99.90
2018-04-06T19:31:29.143Z,99.90
2018-04-06T19:33:55.212Z,99.90
2018-04-06T19:36:21.916Z,99.90
2018-04-06T19:38:48.649Z,99.90
2018-04-06T19:41:14.666Z,99.90
2018-04-06T19:43:40.785Z,99.90
2018-04-06T19:46:06.912Z,99.90
2018-04-06T19:48:33.194Z,99.90
2018-04-06T19:50:59.257Z,99.90
2018-04-06T19:53:25.405Z,99.90
2018-04-06T19:55:51.456Z,99.90
2018-04-06T19:58:17.472Z,99.90
2018-04-06T20:00:44.282Z,99.90
2018-04-06T20:03:10.458Z,99.90
2018-04-06T20:05:36.627Z,99.90
2018-04-06T20:08:02.747Z,99.90
2018-04-06T20:10:29.640Z,99.90
2018-04-06T20:12:55.682Z,99.90
2018-04-06T20:15:21.980Z,99.90
2018-04-06T20:17:48.744Z,99.90
2018-04-06T20:20:15.515Z,99.90
2018-04-06T20:22:41.724Z,99.90
2018-04-06T20:25:07.766Z,99.90
2018-04-06T20:27:34.538Z,99.90
2018-04-06T20:30:00.579Z,99.90
2018-04-06T20:32:26.618Z,99.90
2018-04-06T20:34:52.678Z,99.90
2018-04-06T20:37:18.742Z,99.90
2018-04-06T20:39:44.788Z,99.90
2018-04-06T20:42:10.892Z,99.90
2018-04-06T20:44:36.916Z,99.90
2018-04-06T20:47:02.995Z,99.90
2018-04-06T20:49:29.068Z,99.90
2018-04-06T20:51:55.882Z,99.90
2018-04-06T20:54:22.025Z,99.90
2018-04-06T20:56:48.058Z,99.90
2018-04-06T20:59:14.082Z,99.90
2018-04-06T21:01:40.215Z,99.90
2018-04-06T21:04:06.260Z,99.90
2018-04-06T21:06:32.279Z,99.90
2018-04-06T21:08:58.317Z,99.90
2018-04-06T21:11:24.364Z,99.90
2018-04-06T21:13:50.408Z,99.90
2018-04-06T21:16:16.452Z,99.90
2018-04-06T21:18:43.246Z,99.90
2018-04-06T21:21:10.048Z,99.90
2018-04-06T21:23:36.119Z,99.90
2018-04-06T21:26:02.188Z,99.90
2018-04-06T21:28:28.217Z,99.90
2018-04-06T21:30:54.971Z,99.90
2018-04-06T21:33:21.746Z,99.90
2018-04-06T21:35:47.819Z,99.90
2018-04-06T21:38:13.932Z,99.90
2018-04-06T21:40:40.018Z,99.90
2018-04-06T21:43:06.798Z,99.90
2018-04-06T21:45:32.842Z,99.90
2018-04-06T21:47:59.091Z,99.90
2018-04-06T21:50:25.114Z,99.90
2018-04-06T21:52:51.910Z,99.90
2018-04-06T21:55:17.977Z,99.90
2018-04-06T21:57:44.011Z,99.90
2018-04-06T22:00:10.041Z,99.90
2018-04-06T22:02:36.086Z,99.90
2018-04-06T22:05:02.135Z,99.90
2018-04-06T22:07:28.919Z,99.90
2018-04-06T22:09:55.155Z,99.90
2018-04-06T22:12:21.259Z,99.90
2018-04-06T22:14:47.351Z,99.90
2018-04-06T22:17:13.425Z,99.90
2018-04-06T22:19:39.611Z,99.90
2018-04-06T22:22:05.656Z,99.90
2018-04-06T22:24:31.703Z,99.90
2018-04-06T22:26:57.725Z,99.90
2018-04-06T22:29:23.778Z,99.90
2018-04-06T22:31:49.857Z,99.90
2018-04-06T22:34:15.904Z,99.90
2018-04-06T22:36:42.006Z,99.90
2018-04-06T22:39:08.657Z,99.90
2018-04-06T22:41:34.668Z,99.90
2018-04-06T22:44:00.700Z,99.90
2018-04-06T22:46:27.125Z,99.90
2018-04-06T22:48:53.127Z,99.90
2018-04-06T22:51:19.150Z,99.90
2018-04-06T22:53:45.974Z,99.90
2018-04-06T22:56:12.041Z,99.90
2018-04-06T22:58:38.081Z,99.90
2018-04-06T23:01:05.021Z,99.90
2018-04-06T23:03:31.105Z,99.90
2018-04-06T23:05:57.162Z,99.90
2018-04-06T23:08:23.164Z,99.90
2018-04-06T23:10:49.207Z,99.90
2018-04-06T23:13:15.506Z,99.90
2018-04-06T23:15:41.639Z,99.90
2018-04-06T23:18:08.886Z,99.90
2018-04-06T23:20:34.906Z,99.90
2018-04-06T23:23:00.966Z,99.90
2018-04-06T23:25:27.322Z,99.90
2018-04-06T23:27:53.381Z,99.90
2018-04-06T23:30:19.419Z,99.90
2018-04-06T23:32:45.774Z,99.90
2018-04-06T23:35:12.559Z,99.90
2018-04-06T23:37:38.659Z,99.90
2018-04-06T23:40:04.961Z,99.90
2018-04-06T23:42:31.010Z,99.90
2018-04-06T23:44:57.140Z,99.90
2018-04-06T23:47:23.216Z,99.90
2018-04-06T23:49:49.260Z,99.90
2018-04-06T23:52:15.322Z,99.90
2018-04-06T23:54:42.298Z,99.90
2018-04-06T23:57:08.365Z,99.90
2018-04-06T23:59:34.444Z,99.90
